createdAt,value
2022-10-05T00:00:21.554Z,7.56
2022-10-05T00:02:50.134Z,7.59
2022-10-05T00:05:24.896Z,7.61
2022-10-05T00:07:53.786Z,7.63
2022-10-05T00:10:22.431Z,7.66
2022-10-05T00:12:50.201Z,7.68
2022-10-05T00:15:20.756Z,7.69
2022-10-05T00:17:48.574Z,7.71
2022-10-05T00:20:21.617Z,7.70
2022-10-05T00:22:51.309Z,7.62
2022-10-05T00:25:21.680Z,7.59
2022-10-05T00:27:55.230Z,7.60
2022-10-05T00:30:24.760Z,7.52
2022-10-05T00:32:57.308Z,7.51
2022-10-05T00:35:28.557Z,7.55
2022-10-05T00:37:56.599Z,7.59
2022-10-05T00:40:40.261Z,7.62
2022-10-05T00:43:30.869Z,7.65
2022-10-05T00:46:07.045Z,7.67
2022-10-05T00:48:45.340Z,7.69
2022-10-05T00:51:23.240Z,7.71
2022-10-05T00:54:01.558Z,7.72
2022-10-05T00:56:49.890Z,7.73
2022-10-05T00:59:39.437Z,7.74
2022-10-05T01:02:12.125Z,7.69
2022-10-05T01:04:48.942Z,7.65
2022-10-05T01:07:28.953Z,7.62
2022-10-05T01:10:05.730Z,7.62
2022-10-05T01:12:40.863Z,7.50
2022-10-05T01:15:14.640Z,7.40
2022-10-05T01:17:48.989Z,7.35
2022-10-05T01:20:42.698Z,7.33
2022-10-05T01:23:38.389Z,7.31
2022-10-05T01:26:28.274Z,7.33
2022-10-05T01:29:01.774Z,7.36
2022-10-05T01:31:38.488Z,7.40
2022-10-05T01:34:12.824Z,7.43
2022-10-05T01:36:49.621Z,7.45
2022-10-05T01:39:21.678Z,7.46
2022-10-05T01:41:57.752Z,7.46
2022-10-05T01:44:30.825Z,7.47
2022-10-05T01:47:06.902Z,7.48
2022-10-05T01:49:38.091Z,7.49
2022-10-05T01:52:18.299Z,7.51
2022-10-05T01:54:57.737Z,7.50
2022-10-05T01:57:37.453Z,7.50
2022-10-05T02:00:07.246Z,7.48
2022-10-05T02:02:39.164Z,7.46
2022-10-05T02:05:12.855Z,7.45
2022-10-05T02:07:47.458Z,7.45
2022-10-05T02:10:25.486Z,7.47
2022-10-05T02:12:59.131Z,7.47
2022-10-05T02:15:33.856Z,7.47
2022-10-05T02:18:08.202Z,7.44
2022-10-05T02:20:39.876Z,7.41
2022-10-05T02:23:14.101Z,7.39
2022-10-05T02:25:46.393Z,7.40
2022-10-05T02:28:18.963Z,7.41
2022-10-05T02:30:51.300Z,7.40
2022-10-05T02:33:27.067Z,7.40
2022-10-05T02:35:55.545Z,7.38
2022-10-05T02:38:33.422Z,7.36
2022-10-05T02:41:11.994Z,7.37
2022-10-05T02:43:47.210Z,7.37
2022-10-05T02:46:24.208Z,7.36
2022-10-05T02:48:57.065Z,7.37
2022-10-05T02:51:28.205Z,7.37
2022-10-05T02:54:07.477Z,7.38
2022-10-05T02:56:43.721Z,7.38
2022-10-05T02:59:21.648Z,7.37
2022-10-05T03:01:52.298Z,7.37
2022-10-05T03:04:33.619Z,7.38
2022-10-05T03:07:09.972Z,7.39
2022-10-05T03:09:42.004Z,7.41
2022-10-05T03:12:22.928Z,7.42
2022-10-05T03:15:00.407Z,7.43
2022-10-05T03:17:35.638Z,7.45
2022-10-05T03:20:27.787Z,7.47
2022-10-05T03:22:59.223Z,7.50
2022-10-05T03:25:41.578Z,7.53
2022-10-05T03:28:17.022Z,7.56
2022-10-05T03:30:56.814Z,7.60
2022-10-05T03:33:37.032Z,7.65
2022-10-05T03:36:10.497Z,7.68
2022-10-05T03:38:43.949Z,7.72
2022-10-05T03:41:22.894Z,7.75
2022-10-05T03:44:11.240Z,7.79
2022-10-05T03:46:49.903Z,7.82
2022-10-05T03:49:28.399Z,7.86
2022-10-05T03:52:01.991Z,7.89
2022-10-05T03:54:34.555Z,7.91
2022-10-05T03:57:10.197Z,7.92
2022-10-05T03:59:44.093Z,7.92
2022-10-05T04:02:21.354Z,7.91
2022-10-05T04:04:54.765Z,7.92
2022-10-05T04:07:30.239Z,7.93
2022-10-05T04:10:00.234Z,7.93
2022-10-05T04:12:33.240Z,7.94
2022-10-05T04:15:04.682Z,7.90
2022-10-05T04:17:37.713Z,7.88
2022-10-05T04:20:15.906Z,7.88
2022-10-05T04:22:49.063Z,7.89
2022-10-05T04:25:21.104Z,7.88
2022-10-05T04:27:54.861Z,7.88
2022-10-05T04:30:22.527Z,7.87
2022-10-05T04:32:54.703Z,7.88
2022-10-05T04:35:40.218Z,7.89
2022-10-05T04:38:21.916Z,7.89
2022-10-05T04:41:01.663Z,7.89
2022-10-05T04:43:41.952Z,7.90
2022-10-05T04:46:25.449Z,7.92
2022-10-05T04:49:07.804Z,7.92
2022-10-05T04:51:47.727Z,7.91
2022-10-05T04:54:35.040Z,7.91
2022-10-05T04:57:10.186Z,7.91
2022-10-05T05:00:01.273Z,7.92
2022-10-05T05:02:39.922Z,7.92
2022-10-05T05:05:27.435Z,7.93
2022-10-05T05:08:06.686Z,7.95
2022-10-05T05:10:58.494Z,7.97
2022-10-05T05:13:52.589Z,7.99
2022-10-05T05:16:31.303Z,8.02
2022-10-05T05:19:34.989Z,8.04
2022-10-05T05:22:06.917Z,8.08
2022-10-05T05:24:55.633Z,8.10
2022-10-05T05:27:38.316Z,8.15
2022-10-05T05:30:16.872Z,8.18
2022-10-05T05:33:01.595Z,8.21
2022-10-05T05:35:41.228Z,8.22
2022-10-05T05:38:20.373Z,8.24
2022-10-05T05:40:56.385Z,8.25
2022-10-05T05:43:27.372Z,8.27
2022-10-05T05:46:00.272Z,8.28
2022-10-05T05:48:36.435Z,8.30
2022-10-05T05:51:08.012Z,8.33
2022-10-05T05:53:40.423Z,8.35
2022-10-05T05:56:11.465Z,8.38
2022-10-05T05:58:46.608Z,8.41
2022-10-05T06:01:32.557Z,8.42
2022-10-05T06:04:09.184Z,8.44
2022-10-05T06:06:42.077Z,8.45
2022-10-05T06:09:22.724Z,8.46
2022-10-05T06:11:53.681Z,8.54
2022-10-05T06:14:27.108Z,8.62
2022-10-05T06:16:58.770Z,8.71
2022-10-05T06:19:28.644Z,8.82
2022-10-05T06:22:02.622Z,8.91
2022-10-05T06:24:38.384Z,9.01
2022-10-05T06:27:25.796Z,9.14
2022-10-05T06:30:12.738Z,9.26
2022-10-05T06:33:06.883Z,9.38
2022-10-05T06:35:52.210Z,9.49
2022-10-05T06:38:44.662Z,9.58
2022-10-05T06:41:19.712Z,9.70
2022-10-05T06:43:58.153Z,9.79
2022-10-05T06:46:31.667Z,9.88
2022-10-05T06:49:15.814Z,9.97
2022-10-05T06:51:52.501Z,10.06
2022-10-05T06:54:35.005Z,10.17
2022-10-05T06:57:10.077Z,10.28
2022-10-05T06:59:48.034Z,10.42
2022-10-05T07:02:24.495Z,10.53
2022-10-05T07:05:25.657Z,10.64
2022-10-05T07:07:58.048Z,10.73
2022-10-05T07:10:33.999Z,10.80
2022-10-05T07:13:17.249Z,10.87
2022-10-05T07:15:54.226Z,10.95
2022-10-05T07:18:39.362Z,11.03
2022-10-05T07:21:16.875Z,11.10
2022-10-05T07:23:52.353Z,11.20
2022-10-05T07:26:28.116Z,11.28
2022-10-05T07:29:17.236Z,11.38
2022-10-05T07:31:49.503Z,11.48
2022-10-05T07:34:26.176Z,11.58
2022-10-05T07:37:20.314Z,11.67
2022-10-05T07:40:07.192Z,11.77
2022-10-05T07:42:52.324Z,11.86
2022-10-05T07:45:30.623Z,11.96
2022-10-05T07:48:04.671Z,12.04
2022-10-05T07:50:39.833Z,12.12
2022-10-05T07:53:18.282Z,12.18
2022-10-05T07:55:54.352Z,12.28
2022-10-05T07:58:30.833Z,12.36
2022-10-05T08:01:07.819Z,12.43
2022-10-05T08:03:51.676Z,12.54
2022-10-05T08:06:32.123Z,12.64
2022-10-05T08:09:11.841Z,12.76
2022-10-05T08:11:53.291Z,12.89
2022-10-05T08:14:32.959Z,13.00
2022-10-05T08:17:06.006Z,13.11
2022-10-05T08:19:39.277Z,13.23
2022-10-05T08:22:12.656Z,13.35
2022-10-05T08:24:49.130Z,13.47
2022-10-05T08:27:23.319Z,13.64
2022-10-05T08:29:56.818Z,13.78
2022-10-05T08:32:29.886Z,13.94
2022-10-05T08:35:14.292Z,14.08
2022-10-05T08:37:44.594Z,14.22
2022-10-05T08:40:47.187Z,14.33
2022-10-05T08:43:37.526Z,14.45
2022-10-05T08:46:31.530Z,14.57
2022-10-05T08:49:22.379Z,14.71
2022-10-05T08:52:08.457Z,14.86
2022-10-05T08:54:46.894Z,15.00
2022-10-05T08:57:36.832Z,15.14
2022-10-05T09:00:11.801Z,15.31
2022-10-05T09:03:04.379Z,15.45
2022-10-05T09:05:58.594Z,15.60
2022-10-05T09:08:55.937Z,15.73
2022-10-05T09:11:32.842Z,15.87
2022-10-05T09:14:10.819Z,15.97
2022-10-05T09:16:50.675Z,16.06
2022-10-05T09:19:59.364Z,16.16
2022-10-05T09:22:56.777Z,16.28
2022-10-05T09:25:35.351Z,16.37
2022-10-05T09:28:20.092Z,16.46
2022-10-05T09:30:58.142Z,16.55
2022-10-05T09:33:53.190Z,16.65
2022-10-05T09:36:53.047Z,16.75
2022-10-05T09:39:44.843Z,16.84
2022-10-05T09:42:43.409Z,16.92
2022-10-05T09:45:59.165Z,16.99
2022-10-05T09:48:55.301Z,17.08
2022-10-05T09:51:55.502Z,17.15
2022-10-05T09:55:13.434Z,17.23
2022-10-05T09:58:11.412Z,17.29
2022-10-05T10:01:09.221Z,17.35
2022-10-05T10:04:09.449Z,17.40
2022-10-05T10:07:16.701Z,17.44
2022-10-05T10:10:12.318Z,17.50
2022-10-05T10:12:56.361Z,17.53
2022-10-05T10:15:54.164Z,17.56
2022-10-05T10:18:40.311Z,17.58
2022-10-05T10:21:34.305Z,17.62
2022-10-05T10:24:14.088Z,17.66
2022-10-05T10:27:16.068Z,17.71
2022-10-05T10:30:16.035Z,17.77
2022-10-05T10:33:14.955Z,17.82
2022-10-05T10:35:54.310Z,17.86
2022-10-05T10:38:36.628Z,17.87
2022-10-05T10:41:27.135Z,17.86
2022-10-05T10:44:32.300Z,17.87
2022-10-05T10:47:22.304Z,17.92
2022-10-05T10:50:10.930Z,17.96
2022-10-05T10:52:57.655Z,18.02
2022-10-05T10:55:38.428Z,18.11
2022-10-05T10:58:38.263Z,18.19
2022-10-05T11:01:26.425Z,18.27
2022-10-05T11:04:21.674Z,18.32
2022-10-05T11:07:21.948Z,18.37
2022-10-05T11:10:02.575Z,18.41
2022-10-05T11:13:04.662Z,18.47
2022-10-05T11:15:52.511Z,18.50
2022-10-05T11:18:30.471Z,18.53
2022-10-05T11:21:25.857Z,18.59
2022-10-05T11:24:21.911Z,18.66
2022-10-05T11:27:11.943Z,18.74
2022-10-05T11:30:12.966Z,18.85
2022-10-05T11:33:11.930Z,18.98
2022-10-05T11:35:55.844Z,19.08
2022-10-05T11:38:38.609Z,19.17
2022-10-05T11:41:42.413Z,19.23
2022-10-05T11:44:33.585Z,19.31
2022-10-05T11:47:10.012Z,19.39
2022-10-05T11:49:47.184Z,19.45
2022-10-05T11:52:22.436Z,19.49
2022-10-05T11:55:14.727Z,19.59
2022-10-05T11:57:53.700Z,19.72
2022-10-05T12:00:23.792Z,19.84
2022-10-05T12:03:09.924Z,19.96
2022-10-05T12:05:50.846Z,20.13
2022-10-05T12:08:32.068Z,20.32
2022-10-05T12:11:14.437Z,20.49
2022-10-05T12:13:48.220Z,20.66
2022-10-05T12:16:22.272Z,20.83
2022-10-05T12:18:56.880Z,20.98
2022-10-05T12:21:33.614Z,21.12
2022-10-05T12:24:08.297Z,21.19
2022-10-05T12:26:41.014Z,21.22
2022-10-05T12:29:16.817Z,21.25
2022-10-05T12:31:54.967Z,21.26
2022-10-05T12:34:34.709Z,21.28
2022-10-05T12:37:09.025Z,21.34
2022-10-05T12:39:42.764Z,21.35
2022-10-05T12:42:23.061Z,21.37
2022-10-05T12:45:03.647Z,21.36
2022-10-05T12:47:40.632Z,21.35
2022-10-05T12:50:22.273Z,21.38
2022-10-05T12:53:07.637Z,21.48
2022-10-05T12:55:48.551Z,21.58
2022-10-05T12:58:28.860Z,21.69
2022-10-05T13:01:02.875Z,21.84
2022-10-05T13:03:36.555Z,21.98
2022-10-05T13:06:15.364Z,22.09
2022-10-05T13:08:49.319Z,22.20
2022-10-05T13:11:24.235Z,22.28
2022-10-05T13:14:01.741Z,22.41
2022-10-05T13:16:39.926Z,22.50
2022-10-05T13:19:22.769Z,22.57
2022-10-05T13:22:04.879Z,22.68
2022-10-05T13:24:40.093Z,22.81
2022-10-05T13:27:18.180Z,22.95
2022-10-05T13:29:54.414Z,23.07
2022-10-05T13:32:25.033Z,23.19
2022-10-05T13:35:15.843Z,23.29
2022-10-05T13:37:55.491Z,23.41
2022-10-05T13:40:31.891Z,23.51
2022-10-05T13:43:03.972Z,23.60
2022-10-05T13:45:41.952Z,23.67
2022-10-05T13:48:20.752Z,23.69
2022-10-05T13:51:01.483Z,23.78
2022-10-05T13:53:40.100Z,23.88
2022-10-05T13:56:16.030Z,23.91
2022-10-05T13:58:50.862Z,23.91
2022-10-05T14:01:25.488Z,23.93
2022-10-05T14:04:16.602Z,23.98
2022-10-05T14:06:45.075Z,24.00
2022-10-05T14:09:29.107Z,23.98
2022-10-05T14:12:13.224Z,23.91
2022-10-05T14:14:47.862Z,23.83
2022-10-05T14:17:32.124Z,23.76
2022-10-05T14:20:19.121Z,23.65
2022-10-05T14:22:52.013Z,23.54
2022-10-05T14:25:20.135Z,23.43
2022-10-05T14:27:57.251Z,23.33
2022-10-05T14:30:27.144Z,23.22
2022-10-05T14:32:59.881Z,23.12
2022-10-05T14:35:31.249Z,22.98
2022-10-05T14:38:03.851Z,22.86
2022-10-05T14:40:33.693Z,22.71
2022-10-05T14:43:17.190Z,22.60
2022-10-05T14:45:54.771Z,22.47
2022-10-05T14:48:23.549Z,22.39
2022-10-05T14:50:56.440Z,22.30
2022-10-05T14:53:25.544Z,22.20
2022-10-05T14:56:16.399Z,22.11
2022-10-05T14:59:03.519Z,22.00
2022-10-05T15:01:34.313Z,21.90
2022-10-05T15:04:21.868Z,21.79
2022-10-05T15:07:04.065Z,21.65
2022-10-05T15:09:49.683Z,21.54
2022-10-05T15:12:24.569Z,21.41
2022-10-05T15:14:57.086Z,21.28
2022-10-05T15:17:32.853Z,21.14
2022-10-05T15:20:09.862Z,20.95
2022-10-05T15:22:47.513Z,20.82
2022-10-05T15:25:22.387Z,20.70
2022-10-05T15:28:04.458Z,20.60
2022-10-05T15:30:35.944Z,20.50
2022-10-05T15:33:18.656Z,20.36
2022-10-05T15:36:14.578Z,20.18
2022-10-05T15:39:00.463Z,19.99
2022-10-05T15:41:43.202Z,19.83
2022-10-05T15:44:19.117Z,19.71
2022-10-05T15:46:56.156Z,19.61
2022-10-05T15:49:33.188Z,19.50
2022-10-05T15:52:11.957Z,19.41
2022-10-05T15:55:08.899Z,19.33
2022-10-05T15:57:43.515Z,19.25
2022-10-05T16:00:14.831Z,19.15
2022-10-05T16:02:50.693Z,19.04
2022-10-05T16:05:49.209Z,18.92
2022-10-05T16:08:50.464Z,18.79
2022-10-05T16:11:36.266Z,18.66
2022-10-05T16:14:17.525Z,18.50
2022-10-05T16:16:58.447Z,18.38
2022-10-05T16:19:35.365Z,18.27
2022-10-05T16:22:14.536Z,18.15
2022-10-05T16:24:58.982Z,18.01
2022-10-05T16:27:40.444Z,17.90
2022-10-05T16:30:12.940Z,17.75
2022-10-05T16:32:49.390Z,17.65
2022-10-05T16:35:32.626Z,17.55
2022-10-05T16:38:13.200Z,17.43
2022-10-05T16:40:50.317Z,17.34
2022-10-05T16:43:33.906Z,17.22
2022-10-05T16:46:12.481Z,17.11
2022-10-05T16:48:54.667Z,17.01
2022-10-05T16:51:30.668Z,16.90
2022-10-05T16:54:09.622Z,16.79
2022-10-05T16:56:42.428Z,16.69
2022-10-05T16:59:30.166Z,16.61
2022-10-05T17:02:06.412Z,16.53
2022-10-05T17:04:44.496Z,16.45
2022-10-05T17:07:35.029Z,16.38
2022-10-05T17:10:36.434Z,16.31
2022-10-05T17:13:19.239Z,16.23
2022-10-05T17:16:02.742Z,16.17
2022-10-05T17:18:58.253Z,16.09
2022-10-05T17:21:34.361Z,16.04
2022-10-05T17:24:20.850Z,15.97
2022-10-05T17:27:12.383Z,15.91
2022-10-05T17:29:51.760Z,15.83
2022-10-05T17:32:35.851Z,15.75
2022-10-05T17:35:18.460Z,15.69
2022-10-05T17:38:05.805Z,15.64
2022-10-05T17:40:37.329Z,15.59
2022-10-05T17:43:23.677Z,15.53
2022-10-05T17:45:55.131Z,15.45
2022-10-05T17:48:43.820Z,15.37
2022-10-05T17:52:10.925Z,15.28
2022-10-05T17:55:18.836Z,15.18
2022-10-05T17:57:46.532Z,15.08
2022-10-05T18:00:41.441Z,15.01
2022-10-05T18:03:34.916Z,14.95
2022-10-05T18:06:31.504Z,14.89
2022-10-05T18:09:27.296Z,14.83
2022-10-05T18:12:12.060Z,14.77
2022-10-05T18:14:59.984Z,14.72
2022-10-05T18:17:44.839Z,14.67
2022-10-05T18:20:29.542Z,14.62
2022-10-05T18:23:29.643Z,14.57
2022-10-05T18:26:19.847Z,14.52
2022-10-05T18:28:59.483Z,14.47
2022-10-05T18:31:36.619Z,14.44
2022-10-05T18:34:29.634Z,14.40
2022-10-05T18:37:11.972Z,14.37
2022-10-05T18:40:00.517Z,14.34
2022-10-05T18:42:39.130Z,14.31
2022-10-05T18:45:21.583Z,14.27
2022-10-05T18:48:03.291Z,14.23
2022-10-05T18:50:44.654Z,14.20
2022-10-05T18:53:22.927Z,14.16
2022-10-05T18:55:58.513Z,14.11
2022-10-05T18:58:36.455Z,14.06
2022-10-05T19:01:34.982Z,13.99
2022-10-05T19:04:15.997Z,13.91
2022-10-05T19:06:58.215Z,13.83
2022-10-05T19:09:43.291Z,13.77
2022-10-05T19:12:18.064Z,13.69
2022-10-05T19:14:56.148Z,13.58
2022-10-05T19:17:31.417Z,13.46
2022-10-05T19:20:17.467Z,13.37
2022-10-05T19:23:01.456Z,13.28
2022-10-05T19:25:39.750Z,13.17
2022-10-05T19:28:20.691Z,13.12
2022-10-05T19:31:09.138Z,13.12
2022-10-05T19:33:54.340Z,13.12
2022-10-05T19:36:41.926Z,13.11
2022-10-05T19:39:16.987Z,13.08
2022-10-05T19:41:58.448Z,13.04
2022-10-05T19:44:41.674Z,13.02
2022-10-05T19:47:18.537Z,13.00
2022-10-05T19:49:58.271Z,12.98
2022-10-05T19:52:28.203Z,12.96
2022-10-05T19:55:14.399Z,12.94
2022-10-05T19:57:53.112Z,12.91
2022-10-05T20:00:26.605Z,12.90
2022-10-05T20:03:11.156Z,12.88
2022-10-05T20:05:39.638Z,12.84
2022-10-05T20:08:13.936Z,12.81
2022-10-05T20:10:41.603Z,12.78
2022-10-05T20:13:23.329Z,12.71
2022-10-05T20:16:40.785Z,12.65
2022-10-05T20:19:48.931Z,12.61
2022-10-05T20:22:29.382Z,12.55
2022-10-05T20:24:59.442Z,12.50
2022-10-05T20:27:43.250Z,12.45
2022-10-05T20:30:12.795Z,12.41
2022-10-05T20:32:41.412Z,12.39
2022-10-05T20:35:10.129Z,12.37
2022-10-05T20:37:37.770Z,12.33
2022-10-05T20:40:07.311Z,12.29
2022-10-05T20:42:34.914Z,12.23
2022-10-05T20:45:03.555Z,12.17
2022-10-05T20:47:31.493Z,12.12
2022-10-05T20:49:58.986Z,11.99
2022-10-05T20:52:26.590Z,11.88
2022-10-05T20:54:56.002Z,11.80
2022-10-05T20:57:23.563Z,11.75
2022-10-05T20:59:51.541Z,11.71
2022-10-05T21:02:19.568Z,11.69
2022-10-05T21:04:47.218Z,11.59
2022-10-05T21:07:15.685Z,11.52
2022-10-05T21:09:44.141Z,11.49
2022-10-05T21:12:12.116Z,11.47
2022-10-05T21:14:39.947Z,11.45
2022-10-05T21:17:07.734Z,11.44
2022-10-05T21:19:39.580Z,11.42
2022-10-05T21:22:07.959Z,11.42
2022-10-05T21:24:36.278Z,11.43
2022-10-05T21:27:05.787Z,11.54
2022-10-05T21:29:34.618Z,11.63
2022-10-05T21:32:02.261Z,11.76
2022-10-05T21:34:29.845Z,11.91
2022-10-05T21:36:57.354Z,12.07
2022-10-05T21:39:26.192Z,12.22
2022-10-05T21:41:53.750Z,12.39
2022-10-05T21:44:21.351Z,12.55
2022-10-05T21:46:49.746Z,12.71
2022-10-05T21:49:19.863Z,12.89
2022-10-05T21:51:47.930Z,13.01
2022-10-05T21:54:19.561Z,13.09
2022-10-05T21:56:50.518Z,13.16
2022-10-05T21:59:21.622Z,13.21
2022-10-05T22:01:49.640Z,13.28
2022-10-05T22:04:17.560Z,13.32
2022-10-05T22:06:45.120Z,13.36
2022-10-05T22:09:12.610Z,13.39
2022-10-05T22:11:40.157Z,13.39
2022-10-05T22:14:07.687Z,13.40
2022-10-05T22:16:38.315Z,13.44
2022-10-05T22:19:12.444Z,13.48
2022-10-05T22:21:41.014Z,13.46
2022-10-05T22:24:10.697Z,13.47
2022-10-05T22:26:39.305Z,13.46
2022-10-05T22:29:07.094Z,13.42
2022-10-05T22:31:35.036Z,13.41
2022-10-05T22:34:02.615Z,13.41
2022-10-05T22:36:30.186Z,13.39
2022-10-05T22:38:58.196Z,13.40
2022-10-05T22:41:25.772Z,13.41
2022-10-05T22:43:53.367Z,13.42
2022-10-05T22:46:21.759Z,13.42
2022-10-05T22:48:49.334Z,13.40
2022-10-05T22:51:17.104Z,13.39
2022-10-05T22:53:44.666Z,13.38
2022-10-05T22:56:14.010Z,13.35
2022-10-05T22:58:42.650Z,13.29
2022-10-05T23:01:12.501Z,13.22
2022-10-05T23:03:40.595Z,13.18
2022-10-05T23:06:09.889Z,13.14
2022-10-05T23:08:38.515Z,13.13
2022-10-05T23:11:07.951Z,13.14
2022-10-05T23:13:35.567Z,13.14
2022-10-05T23:16:08.022Z,13.12
2022-10-05T23:18:35.766Z,13.10
2022-10-05T23:21:06.635Z,13.09
2022-10-05T23:23:36.097Z,13.07
2022-10-05T23:26:04.623Z,13.06
2022-10-05T23:28:32.714Z,13.06
2022-10-05T23:31:02.186Z,13.07
2022-10-05T23:33:30.514Z,13.08
2022-10-05T23:35:59.628Z,13.07
2022-10-05T23:38:27.469Z,13.05
2022-10-05T23:40:55.846Z,13.03
2022-10-05T23:43:23.412Z,12.99
2022-10-05T23:45:51.095Z,12.96
2022-10-05T23:48:18.722Z,12.91
2022-10-05T23:50:47.592Z,12.85
2022-10-05T23:53:15.932Z,12.81
2022-10-05T23:55:43.930Z,12.74
2022-10-05T23:58:11.969Z,12.67
